Time;durP1;ratioP1;P1;durP2;ratioP2;P2;SDS_P1;SDS_P2;PMS_P1;PMS_P2;Temp;Humidity;BMP_temperature;BMP_pressure;BME280_temperature;BME280_humidity;BME280_pressure;Samples;Min_cycle;Max_cycle;Signal;HPM_P1;HPM_P2
2023/10/04 00:00:23;;;;;;;13.97;8.23;;;;;;;13.73;82.96;95357.75;5070765;28;20202;-44
2023/10/04 00:02:51;;;;;;;18.07;8.20;;;;;;;13.72;83.23;95367.25;5072480;28;20593;-43
2023/10/04 00:05:21;;;;;;;14.03;7.87;;;;;;;13.67;83.25;95358.34;5073524;28;20179;-44
2023/10/04 00:07:49;;;;;;;11.03;7.57;;;;;;;13.69;83.33;95364.97;5070814;28;20194;-44
2023/10/04 00:10:16;;;;;;;14.10;8.33;;;;;;;13.66;83.15;95359.28;5070802;28;20187;-45
2023/10/04 00:12:44;;;;;;;14.57;7.57;;;;;;;13.64;83.44;95351.72;5071101;28;20194;-43
2023/10/04 00:15:13;;;;;;;11.13;7.40;;;;;;;13.64;83.66;95353.47;5080315;28;20217;-43
2023/10/04 00:17:41;;;;;;;13.13;7.27;;;;;;;13.61;83.38;95354.59;5088961;28;20240;-44
2023/10/04 00:20:10;;;;;;;10.00;7.33;;;;;;;13.64;83.39;95346.56;5090700;28;20636;-45
2023/10/04 00:22:40;;;;;;;12.57;7.50;;;;;;;13.60;83.46;95342.69;5090662;28;20250;-45
2023/10/04 00:25:11;;;;;;;14.83;8.03;;;;;;;13.58;83.63;95343.75;5083518;28;20337;-44
2023/10/04 00:27:38;;;;;;;12.07;7.10;;;;;;;13.53;83.87;95347.56;5070254;28;20183;-44
2023/10/04 00:30:07;;;;;;;13.43;7.13;;;;;;;13.51;83.91;95352.03;5070171;28;20182;-45
2023/10/04 00:32:36;;;;;;;12.00;7.33;;;;;;;13.49;84.07;95353.13;5069852;28;20281;-44
2023/10/04 00:35:07;;;;;;;14.87;8.27;;;;;;;13.47;83.87;95349.88;5072247;28;20202;-44
2023/10/04 00:37:34;;;;;;;12.53;8.00;;;;;;;13.44;84.22;95355.31;5070403;28;20186;-45
2023/10/04 00:40:09;;;;;;;13.53;7.73;;;;;;;13.41;84.37;95348.66;5070301;28;20190;-44
2023/10/04 00:42:36;;;;;;;12.50;7.30;;;;;;;13.35;84.80;95348.44;5069806;28;20680;-44
2023/10/04 00:45:04;;;;;;;10.97;7.37;;;;;;;13.28;84.62;95337.88;5069900;28;20190;-47
2023/10/04 00:47:32;;;;;;;10.57;8.20;;;;;;;13.33;84.89;95345.97;5070243;28;20194;-45
2023/10/04 00:50:07;;;;;;;15.10;8.87;;;;;;;13.30;84.81;95343.72;5070354;28;20191;-43
2023/10/04 00:52:34;;;;;;;11.63;7.57;;;;;;;13.26;85.25;95348.31;5069789;28;20233;-44
2023/10/04 00:55:02;;;;;;;12.57;7.37;;;;;;;13.21;85.37;95345.31;5082009;28;20684;-44
2023/10/04 00:57:31;;;;;;;13.27;7.10;;;;;;;13.17;85.75;95341.41;5090002;28;20192;-45
2023/10/04 00:59:57;;;;;;;10.37;8.10;;;;;;;12.96;85.96;95309.94;5089957;28;20251;-45
2023/10/04 01:02:24;;;;;;;12.37;8.17;;;;;;;13.12;86.20;95343.53;5089722;28;20251;-44
2023/10/04 01:04:51;;;;;;;11.77;8.00;;;;;;;13.08;86.07;95339.63;5090135;28;20205;-45
2023/10/04 01:07:18;;;;;;;14.17;7.97;;;;;;;13.09;86.34;95350.72;5089755;28;20197;-45
2023/10/04 01:09:45;;;;;;;11.50;8.27;;;;;;;13.11;86.49;95349.63;5089868;28;20177;-46
2023/10/04 01:12:13;;;;;;;13.00;8.00;;;;;;;13.09;86.28;95348.16;5087801;28;20212;-44
2023/10/04 01:14:40;;;;;;;14.60;7.60;;;;;;;13.05;86.61;95351.00;5068918;28;20233;-42
2023/10/04 01:17:12;;;;;;;14.27;8.37;;;;;;;13.04;86.78;95343.44;5070098;28;20592;-44
2023/10/04 01:19:40;;;;;;;11.37;8.10;;;;;;;13.02;86.97;95348.69;5069313;28;20224;-45
2023/10/04 01:22:09;;;;;;;11.33;7.70;;;;;;;13.02;86.92;95353.03;5069753;28;20595;-45
2023/10/04 01:24:41;;;;;;;11.57;7.33;;;;;;;13.00;87.07;95357.50;5069383;28;20197;-43
2023/10/04 01:27:08;;;;;;;13.03;7.47;;;;;;;12.99;87.15;95358.41;5069504;28;20182;-44
2023/10/04 01:29:38;;;;;;;13.10;7.70;;;;;;;12.97;87.24;95353.44;5069415;28;20194;-44
2023/10/04 01:32:07;;;;;;;12.83;7.90;;;;;;;12.94;87.44;95358.81;5069359;28;20244;-43
2023/10/04 01:34:36;;;;;;;12.40;7.57;;;;;;;12.93;87.45;95356.41;5087596;28;20212;-44
2023/10/04 01:37:04;;;;;;;11.93;7.83;;;;;;;12.90;87.44;95354.09;5089393;28;20741;-46
2023/10/04 01:39:32;;;;;;;10.40;6.70;;;;;;;12.91;87.67;95358.28;5089109;28;20247;-45
2023/10/04 01:42:00;;;;;;;10.47;7.27;;;;;;;12.91;87.30;95353.16;5089067;28;20329;-44
2023/10/04 01:44:27;;;;;;;10.77;7.60;;;;;;;12.90;87.57;95362.63;5089240;28;20190;-45
2023/10/04 01:46:56;;;;;;;14.60;7.57;;;;;;;12.90;87.52;95356.66;5089685;28;20185;-44
2023/10/04 01:49:24;;;;;;;13.37;8.40;;;;;;;12.89;87.49;95355.88;5088606;28;20190;-45
2023/10/04 01:51:52;;;;;;;12.63;8.17;;;;;;;12.89;87.58;95348.16;5089528;28;20193;-44
2023/10/04 01:54:18;;;;;;;13.40;7.53;;;;;;;12.90;87.51;95349.78;5088464;28;20189;-43
2023/10/04 01:56:46;;;;;;;9.90;7.47;;;;;;;12.86;87.41;95347.63;5089192;28;20196;-46
2023/10/04 01:59:14;;;;;;;13.33;7.73;;;;;;;12.88;87.46;95346.53;5089390;28;20194;-45
2023/10/04 02:01:41;;;;;;;15.30;8.17;;;;;;;12.85;87.49;95346.00;5089085;28;20213;-45
2023/10/04 02:04:09;;;;;;;12.87;7.73;;;;;;;12.82;87.81;95341.94;5089249;28;20178;-44
2023/10/04 02:06:36;;;;;;;11.00;7.33;;;;;;;12.76;88.18;95343.28;5089284;28;20178;-45
2023/10/04 02:09:09;;;;;;;11.83;7.73;;;;;;;12.73;88.19;95341.00;5088975;28;20270;-44
2023/10/04 02:11:36;;;;;;;14.20;7.83;;;;;;;12.55;88.10;95324.66;5089083;28;20189;-44
2023/10/04 02:14:05;;;;;;;16.47;8.07;;;;;;;12.70;88.28;95348.19;5089168;28;20204;-44
2023/10/04 02:16:31;;;;;;;11.53;7.80;;;;;;;12.67;88.38;95354.38;5088708;28;20232;-45
2023/10/04 02:18:59;;;;;;;13.90;7.70;;;;;;;12.65;88.63;95351.16;5089324;28;20283;-45
2023/10/04 02:21:26;;;;;;;12.33;6.93;;;;;;;12.55;88.81;95340.03;5088643;28;20177;-45
2023/10/04 02:23:54;;;;;;;11.57;7.23;;;;;;;12.58;88.90;95342.34;5089037;28;20194;-45
2023/10/04 02:26:22;;;;;;;11.47;7.50;;;;;;;12.61;89.07;95352.34;5088647;28;20204;-45
2023/10/04 02:28:51;;;;;;;11.93;7.07;;;;;;;12.59;88.98;95350.84;5088853;28;20654;-44
2023/10/04 02:31:20;;;;;;;10.30;7.50;;;;;;;12.59;88.99;95348.28;5078166;28;20182;-45
2023/10/04 02:33:47;;;;;;;14.47;7.63;;;;;;;12.56;89.01;95344.22;5068563;28;20559;-44
2023/10/04 02:36:14;;;;;;;11.37;7.20;;;;;;;12.57;89.09;95350.19;5068403;28;20720;-44
2023/10/04 02:38:40;;;;;;;12.43;7.30;;;;;;;12.53;88.98;95347.06;5068675;28;20194;-44
2023/10/04 02:41:10;;;;;;;12.00;6.90;;;;;;;12.54;89.28;95357.19;5068370;28;20226;-44
2023/10/04 02:43:37;;;;;;;10.97;7.87;;;;;;;12.52;89.38;95353.97;5069051;28;20183;-45
2023/10/04 02:46:05;;;;;;;10.53;7.30;;;;;;;12.50;89.56;95347.34;5068676;28;20229;-44
2023/10/04 02:48:35;;;;;;;13.13;8.20;;;;;;;12.47;89.49;95343.28;5068314;28;20202;-50
2023/10/04 02:51:02;;;;;;;14.73;7.83;;;;;;;12.48;89.74;95351.81;5068502;28;20707;-43
2023/10/04 02:53:29;;;;;;;16.30;8.37;;;;;;;12.46;90.11;95348.53;5068157;28;20194;-44
2023/10/04 02:55:57;;;;;;;14.23;7.90;;;;;;;12.45;89.76;95354.63;5068571;28;20279;-46
2023/10/04 02:58:24;;;;;;;10.97;7.63;;;;;;;12.44;89.80;95346.13;5068372;28;20202;-45
2023/10/04 03:00:51;;;;;;;13.87;8.07;;;;;;;12.43;89.91;95346.22;5068612;28;20565;-44
2023/10/04 03:03:22;;;;;;;9.47;7.10;;;;;;;12.41;90.09;95343.81;5086253;28;20193;-44
2023/10/04 03:05:51;;;;;;;11.53;8.10;;;;;;;12.41;90.16;95348.94;5092527;28;20198;-46
2023/10/04 03:08:18;;;;;;;11.83;8.53;;;;;;;12.29;90.07;95326.91;5092235;28;20679;-45
2023/10/04 03:10:49;;;;;;;16.30;8.03;;;;;;;12.40;90.29;95344.75;5092640;28;20198;-44
2023/10/04 03:13:22;;;;;;;13.80;7.63;;;;;;;12.38;90.84;95350.97;5092309;28;20240;-45
2023/10/04 03:15:50;;;;;;;12.53;7.70;;;;;;;12.31;90.59;95348.13;5092317;28;20587;-46
2023/10/04 03:18:19;;;;;;;17.53;8.70;;;;;;;12.32;90.84;95346.38;5092296;28;20181;-45
2023/10/04 03:20:54;;;;;;;12.00;8.27;;;;;;;12.24;91.02;95339.31;5092570;28;20193;-47
2023/10/04 03:23:23;;;;;;;15.67;8.33;;;;;;;12.28;90.89;95345.81;5092337;28;20204;-44
2023/10/04 03:25:52;;;;;;;14.60;7.97;;;;;;;12.22;91.28;95338.66;5092824;28;20200;-44
2023/10/04 03:28:20;;;;;;;15.67;8.40;;;;;;;12.19;91.62;95339.72;5093253;28;20186;-45
2023/10/04 03:30:46;;;;;;;16.13;9.20;;;;;;;12.16;91.65;95347.66;5092067;28;20220;-46
2023/10/04 03:33:16;;;;;;;12.87;8.67;;;;;;;12.17;91.58;95351.84;5091829;28;20182;-44
2023/10/04 03:35:44;;;;;;;9.87;7.17;;;;;;;12.22;91.51;95351.47;5091661;28;20266;-43
2023/10/04 03:38:11;;;;;;;14.20;8.13;;;;;;;12.20;91.62;95353.34;5091475;28;20207;-44
2023/10/04 03:40:39;;;;;;;14.83;8.90;;;;;;;12.20;91.61;95345.66;5091518;28;20273;-44
2023/10/04 03:43:08;;;;;;;17.77;8.10;;;;;;;12.19;91.52;95344.03;5091029;28;20387;-44
2023/10/04 03:45:39;;;;;;;11.83;8.03;;;;;;;12.17;91.75;95353.59;5091264;28;20186;-44
2023/10/04 03:48:10;;;;;;;15.83;8.33;;;;;;;12.14;91.88;95359.00;5091119;28;20190;-44
2023/10/04 03:50:37;;;;;;;17.47;9.67;;;;;;;12.14;91.62;95362.38;5091306;28;20251;-45
2023/10/04 03:53:04;;;;;;;14.87;8.17;;;;;;;12.12;91.62;95356.56;5091004;28;20542;-44
2023/10/04 03:55:31;;;;;;;15.53;9.70;;;;;;;12.12;91.66;95359.13;5090983;28;20209;-45
2023/10/04 03:58:01;;;;;;;19.23;8.90;;;;;;;12.10;91.86;95357.66;5091207;28;20196;-45
2023/10/04 04:00:30;;;;;;;19.47;8.53;;;;;;;11.99;91.82;95338.03;5090961;28;20205;-44
2023/10/04 04:02:57;;;;;;;21.30;9.60;;;;;;;11.94;91.88;95332.50;5091592;28;20622;-45
2023/10/04 04:05:24;;;;;;;15.40;8.57;;;;;;;12.05;92.20;95353.72;5090553;28;20182;-43
2023/10/04 04:07:52;;;;;;;17.10;9.93;;;;;;;12.06;92.17;95359.66;5090639;28;20236;-45
2023/10/04 04:10:20;;;;;;;14.33;8.90;;;;;;;12.02;92.15;95350.59;5090687;28;20232;-45
2023/10/04 04:12:47;;;;;;;15.90;9.43;;;;;;;11.99;92.80;95351.66;5090935;28;20296;-46
2023/10/04 04:15:17;;;;;;;15.70;9.40;;;;;;;11.78;92.92;95320.94;5090788;28;20194;-43
2023/10/04 04:17:45;;;;;;;13.67;9.03;;;;;;;11.74;92.88;95319.59;5080924;28;20182;-45
2023/10/04 04:20:16;;;;;;;18.47;9.80;;;;;;;11.90;93.23;95352.44;5082128;28;20205;-46
2023/10/04 04:22:47;;;;;;;17.73;10.13;;;;;;;11.74;93.26;95329.84;5071298;28;20651;-45
2023/10/04 04:25:15;;;;;;;19.20;9.93;;;;;;;11.75;93.51;95328.09;5076688;28;20318;-43
2023/10/04 04:27:46;;;;;;;21.40;10.10;;;;;;;11.85;93.73;95346.91;5084572;28;20232;-44
2023/10/04 04:30:18;;;;;;;19.93;10.03;;;;;;;11.85;93.58;95349.47;5079980;28;20191;-43
2023/10/04 04:32:47;;;;;;;17.57;9.83;;;;;;;11.85;93.76;95354.59;5070317;28;20240;-43
2023/10/04 04:35:16;;;;;;;14.03;9.53;;;;;;;11.86;93.81;95345.16;5074969;28;20664;-45
2023/10/04 04:37:45;;;;;;;19.37;10.40;;;;;;;11.87;93.58;95342.44;5089934;28;20277;-44
2023/10/04 04:40:23;;;;;;;17.10;9.97;;;;;;;11.91;94.10;95345.56;5082820;28;20212;-44
2023/10/04 04:42:50;;;;;;;20.37;9.70;;;;;;;11.93;93.69;95343.69;5070292;28;20224;-43
2023/10/04 04:45:22;;;;;;;28.30;10.30;;;;;;;11.96;93.68;95348.53;5066042;28;20175;-44
2023/10/04 04:47:49;;;;;;;27.30;11.63;;;;;;;12.00;93.68;95348.19;5070289;28;20235;-44
2023/10/04 04:50:16;;;;;;;18.97;10.63;;;;;;;12.04;93.57;95346.94;5069619;28;20198;-43
2023/10/04 04:52:44;;;;;;;23.43;10.50;;;;;;;12.09;93.30;95350.88;5069804;28;20206;-44
2023/10/04 04:55:11;;;;;;;16.20;10.33;;;;;;;12.15;92.99;95351.19;5069344;28;20565;-45
2023/10/04 04:57:39;;;;;;;26.73;10.80;;;;;;;12.23;92.76;95351.34;5073649;28;20191;-46
2023/10/04 05:00:30;;;;;;;20.43;10.97;;;;;;;12.35;92.41;95354.63;5082437;28;20183;-47
2023/10/04 05:02:57;;;;;;;27.70;11.50;;;;;;;12.51;91.69;95351.50;5069599;28;20196;-44
2023/10/04 05:05:24;;;;;;;23.20;10.47;;;;;;;12.58;91.45;95355.19;5069551;28;20175;-44
2023/10/04 05:07:51;;;;;;;26.73;11.73;;;;;;;12.76;90.94;95363.03;5069751;28;20202;-42
2023/10/04 05:10:22;;;;;;;29.97;11.50;;;;;;;12.97;90.21;95360.31;5072689;28;20656;-44
2023/10/04 05:12:50;;;;;;;25.07;10.80;;;;;;;13.17;89.27;95364.50;5089683;28;20197;-46
2023/10/04 05:15:27;;;;;;;20.77;10.80;;;;;;;13.36;88.03;95365.44;5089884;28;20213;-44
2023/10/04 05:17:54;;;;;;;21.60;9.93;;;;;;;13.49;87.24;95363.41;5089904;28;20202;-43
2023/10/04 05:20:24;;;;;;;24.57;10.70;;;;;;;13.73;86.41;95368.06;5089608;28;20186;-43
2023/10/04 05:22:52;;;;;;;22.77;9.67;;;;;;;14.03;84.58;95367.00;5089828;28;20687;-45
2023/10/04 05:25:20;;;;;;;23.67;9.93;;;;;;;14.28;83.38;95370.66;5088990;28;20733;-45
2023/10/04 05:27:49;;;;;;;17.43;11.37;;;;;;;14.43;82.28;95365.88;5089830;28;20260;-45
2023/10/04 05:30:16;;;;;;;19.90;10.70;;;;;;;14.51;81.25;95359.06;5078516;28;20203;-44
2023/10/04 05:32:42;;;;;;;21.10;10.80;;;;;;;14.84;80.41;95376.59;5061688;28;20708;-45
2023/10/04 05:35:12;;;;;;;22.87;11.80;;;;;;;14.98;79.40;95382.03;5069603;28;20194;-45
2023/10/04 05:37:41;;;;;;;18.60;10.40;;;;;;;15.12;78.67;95377.34;5069337;28;20303;-45
2023/10/04 05:40:16;;;;;;;23.00;11.03;;;;;;;15.31;78.27;95385.69;5069101;28;20186;-45
2023/10/04 05:42:44;;;;;;;20.53;10.67;;;;;;;15.46;77.29;95388.53;5068951;28;20278;-44
2023/10/04 05:45:12;;;;;;;19.47;11.30;;;;;;;15.64;76.86;95388.53;5069086;28;20191;-44
2023/10/04 05:47:40;;;;;;;19.87;10.90;;;;;;;15.85;75.32;95392.53;5068998;28;20622;-45
2023/10/04 05:50:10;;;;;;;21.23;11.83;;;;;;;16.06;74.47;95398.09;5068999;28;20292;-46
2023/10/04 05:52:37;;;;;;;20.13;10.53;;;;;;;16.03;73.59;95357.94;5069107;28;20186;-43
2023/10/04 05:55:08;;;;;;;20.93;11.13;;;;;;;16.16;73.39;95372.19;5069064;28;20206;-46
2023/10/04 05:57:35;;;;;;;23.77;12.07;;;;;;;16.37;72.92;95403.56;5068424;28;20705;-45
2023/10/04 06:00:14;;;;;;;19.83;11.77;;;;;;;16.45;72.23;95400.19;5068923;28;20186;-45
2023/10/04 06:02:43;;;;;;;19.47;11.03;;;;;;;16.53;71.90;95407.97;5068690;28;20201;-44
2023/10/04 06:05:10;;;;;;;21.20;11.57;;;;;;;16.58;71.69;95400.59;5068886;28;20627;-45
2023/10/04 06:07:37;;;;;;;25.87;11.37;;;;;;;16.66;71.09;95397.19;5068472;28;20256;-45
2023/10/04 06:10:06;;;;;;;27.90;11.57;;;;;;;16.78;70.89;95407.09;5068784;28;20222;-44
2023/10/04 06:12:33;;;;;;;30.50;11.63;;;;;;;16.92;70.36;95404.88;5068560;28;20225;-46
2023/10/04 06:14:59;;;;;;;28.00;12.47;;;;;;;17.05;70.02;95402.63;5069319;28;20186;-45
2023/10/04 06:17:26;;;;;;;23.47;12.30;;;;;;;17.24;69.29;95404.09;5068643;28;20226;-46
2023/10/04 06:19:54;;;;;;;24.10;12.90;;;;;;;17.45;67.96;95414.78;5069170;28;20182;-44
2023/10/04 06:22:21;;;;;;;28.80;13.63;;;;;;;17.68;67.25;95408.94;5068973;28;20630;-44
2023/10/04 06:24:48;;;;;;;26.57;12.70;;;;;;;17.90;66.21;95410.06;5068820;28;20205;-44
2023/10/04 06:27:16;;;;;;;31.83;13.43;;;;;;;17.97;65.64;95406.66;5069269;28;20182;-45
2023/10/04 06:29:44;;;;;;;26.73;12.50;;;;;;;17.91;65.81;95412.47;5068990;28;20190;-46
2023/10/04 06:32:12;;;;;;;23.97;13.10;;;;;;;17.94;65.55;95417.31;5068424;28;20665;-45
2023/10/04 06:34:38;;;;;;;24.33;12.37;;;;;;;18.02;65.60;95399.19;5068855;28;20194;-44
2023/10/04 06:37:05;;;;;;;28.90;13.83;;;;;;;18.16;64.67;95389.94;5071537;28;20206;-45
2023/10/04 06:39:33;;;;;;;26.80;13.27;;;;;;;18.51;63.89;95419.72;5072634;28;20204;-45
2023/10/04 06:42:00;;;;;;;29.63;13.13;;;;;;;18.61;63.05;95419.53;5072440;28;20257;-46
2023/10/04 06:44:28;;;;;;;22.90;12.37;;;;;;;18.68;62.22;95422.25;5072698;28;20201;-46
2023/10/04 06:46:55;;;;;;;19.07;11.80;;;;;;;18.78;61.75;95422.88;5072454;28;20263;-46
2023/10/04 06:49:23;;;;;;;28.07;12.77;;;;;;;18.78;61.14;95428.88;5072475;28;20259;-46
2023/10/04 06:51:49;;;;;;;21.53;11.63;;;;;;;18.59;61.45;95425.84;5072252;28;20712;-46
2023/10/04 06:54:16;;;;;;;26.47;13.17;;;;;;;18.52;61.90;95438.66;5072094;28;20190;-45
2023/10/04 06:56:44;;;;;;;23.33;13.10;;;;;;;18.52;62.21;95429.13;5071841;28;20230;-46
2023/10/04 06:59:11;;;;;;;20.93;13.23;;;;;;;18.70;62.16;95431.50;5071987;28;20178;-44
2023/10/04 07:01:39;;;;;;;19.90;13.20;;;;;;;19.02;61.57;95434.88;5072010;28;20912;-45
2023/10/04 07:04:06;;;;;;;17.30;12.30;;;;;;;19.29;60.04;95438.75;5072190;28;20190;-45
2023/10/04 07:06:33;;;;;;;27.27;13.53;;;;;;;19.43;59.76;95434.59;5072055;28;20568;-45
2023/10/04 07:09:00;;;;;;;23.97;13.20;;;;;;;19.48;59.64;95432.31;5071884;28;20194;-44
2023/10/04 07:11:27;;;;;;;22.63;13.33;;;;;;;19.58;58.98;95432.88;5071878;28;20593;-46
2023/10/04 07:13:54;;;;;;;26.20;11.73;;;;;;;19.65;58.46;95428.63;5071944;28;20232;-45
2023/10/04 07:16:21;;;;;;;24.73;12.97;;;;;;;19.76;58.60;95424.78;5071915;28;20233;-44
2023/10/04 07:18:49;;;;;;;20.25;14.13;;;;;;;19.87;58.68;95426.97;5071795;28;20629;-46
2023/10/04 07:21:16;;;;;;;27.75;12.93;;;;;;;20.28;57.63;95419.53;5072165;28;20194;-45
2023/10/04 07:23:43;;;;;;;19.77;12.90;;;;;;;20.67;56.35;95415.84;5071796;28;20221;-45
2023/10/04 07:26:10;;;;;;;17.70;13.05;;;;;;;20.68;56.06;95420.09;5071519;28;20192;-45
2023/10/04 07:28:40;;;;;;;18.88;12.63;;;;;;;20.65;56.29;95414.44;5071777;28;20194;-44
2023/10/04 07:31:06;;;;;;;20.65;13.15;;;;;;;20.66;56.03;95406.47;5071730;28;20249;-44
2023/10/04 07:33:33;;;;;;;23.55;12.20;;;;;;;20.64;55.62;95411.03;5071797;28;20195;-45
2023/10/04 07:36:01;;;;;;;17.98;11.85;;;;;;;20.63;55.77;95406.00;5071615;28;20191;-44
2023/10/04 07:38:28;;;;;;;24.25;11.98;;;;;;;20.72;55.73;95408.31;5071335;28;20218;-44
2023/10/04 07:40:55;;;;;;;26.23;12.75;;;;;;;20.95;55.18;95408.19;5070940;28;20221;-45
2023/10/04 07:43:22;;;;;;;20.35;12.52;;;;;;;21.27;54.38;95406.88;5071489;28;20183;-46
2023/10/04 07:45:49;;;;;;;23.98;13.55;;;;;;;21.37;53.59;95404.00;5071035;28;20187;-45
2023/10/04 07:48:17;;;;;;;23.48;14.25;;;;;;;21.40;53.06;95408.84;5070793;28;20183;-45
2023/10/04 07:50:44;;;;;;;21.13;13.25;;;;;;;21.45;53.07;95392.66;5071230;28;20194;-44
2023/10/04 07:53:12;;;;;;;20.23;12.45;;;;;;;21.46;53.11;95408.09;5071207;28;20214;-46
2023/10/04 07:55:40;;;;;;;21.40;13.65;;;;;;;21.47;53.17;95403.69;5071582;28;20645;-44
2023/10/04 07:58:09;;;;;;;17.85;12.40;;;;;;;21.47;53.33;95395.91;5071746;28;20230;-46
2023/10/04 08:00:36;;;;;;;20.88;12.23;;;;;;;21.62;53.06;95404.41;5070986;28;20293;-44
2023/10/04 08:03:04;;;;;;;20.58;11.27;;;;;;;21.89;52.30;95408.03;5070917;28;20182;-47
2023/10/04 08:05:32;;;;;;;19.65;11.50;;;;;;;22.03;51.75;95407.13;5070912;28;20566;-46
2023/10/04 08:08:01;;;;;;;21.67;11.57;;;;;;;22.14;51.25;95394.56;5070834;28;20187;-46
2023/10/04 08:10:30;;;;;;;17.88;11.68;;;;;;;22.11;51.17;95390.53;5070636;28;20194;-45
2023/10/04 08:12:59;;;;;;;22.38;12.15;;;;;;;22.10;51.40;95386.28;5070850;28;20182;-46
2023/10/04 08:15:27;;;;;;;29.13;12.25;;;;;;;22.29;50.94;95390.84;5070926;28;20206;-45
2023/10/04 08:17:55;;;;;;;20.05;12.52;;;;;;;22.35;51.05;95393.69;5070842;28;20207;-46
2023/10/04 08:20:28;;;;;;;22.10;12.18;;;;;;;22.35;50.97;95391.06;5070721;28;20236;-46
2023/10/04 08:22:57;;;;;;;23.20;13.50;;;;;;;22.43;50.83;95385.69;5070194;28;20277;-46
2023/10/04 08:25:25;;;;;;;16.60;10.93;;;;;;;22.49;50.83;95387.53;5070515;28;20252;-45
2023/10/04 08:27:53;;;;;;;19.83;10.93;;;;;;;22.53;50.83;95381.72;5069834;28;20625;-46
2023/10/04 08:30:22;;;;;;;16.77;12.18;;;;;;;22.67;50.86;95371.38;5070566;28;20658;-46
2023/10/04 08:32:52;;;;;;;24.52;11.85;;;;;;;22.90;49.85;95371.03;5070371;28;20209;-46
2023/10/04 08:35:24;;;;;;;18.67;10.93;;;;;;;22.90;49.96;95358.00;5070489;28;20630;-46
2023/10/04 08:37:54;;;;;;;25.35;12.48;;;;;;;23.19;49.68;95377.72;5070151;28;20214;-45
2023/10/04 08:40:22;;;;;;;17.58;10.80;;;;;;;23.29;49.07;95372.91;5070973;28;20608;-46
2023/10/04 08:42:51;;;;;;;17.15;11.48;;;;;;;23.49;48.13;95376.34;5069701;28;20232;-46
2023/10/04 08:45:34;;;;;;;21.60;12.30;;;;;;;23.54;47.83;95363.47;5070334;28;20617;-45
2023/10/04 08:48:02;;;;;;;17.67;11.23;;;;;;;23.63;48.07;95373.72;5070127;28;20191;-45
2023/10/04 08:50:34;;;;;;;20.00;12.90;;;;;;;23.68;47.64;95366.91;5070113;28;20222;-47
2023/10/04 08:53:04;;;;;;;20.42;11.13;;;;;;;23.74;47.61;95368.69;5069907;28;20193;-47
2023/10/04 08:55:39;;;;;;;20.75;12.85;;;;;;;23.83;47.37;95371.91;5070373;28;20246;-46
2023/10/04 08:58:07;;;;;;;21.70;12.77;;;;;;;23.84;47.60;95370.91;5069745;28;20309;-46
2023/10/04 09:00:43;;;;;;;23.05;12.13;;;;;;;23.60;47.44;95319.28;5069029;28;20251;-45
2023/10/04 09:03:12;;;;;;;24.50;13.02;;;;;;;23.89;47.10;95368.50;5069712;28;20222;-44
2023/10/04 09:05:46;;;;;;;27.75;12.25;;;;;;;23.89;47.36;95370.31;5069932;28;20201;-45
2023/10/04 09:08:12;;;;;;;18.55;12.35;;;;;;;23.90;47.12;95370.09;5069605;28;20194;-44
2023/10/04 09:10:40;;;;;;;24.35;11.90;;;;;;;23.49;47.47;95308.44;5069874;28;20212;-44
2023/10/04 09:13:09;;;;;;;21.92;12.48;;;;;;;23.77;47.47;95375.34;5069707;28;20194;-46
2023/10/04 09:15:37;;;;;;;23.45;12.93;;;;;;;23.74;47.29;95370.50;5069873;28;20198;-46
2023/10/04 09:18:05;;;;;;;20.23;12.15;;;;;;;23.67;47.21;95369.72;5069955;28;20229;-45
2023/10/04 09:20:32;;;;;;;21.40;12.32;;;;;;;23.57;47.38;95362.25;5070229;28;20182;-46
2023/10/04 09:23:00;;;;;;;29.80;13.20;;;;;;;23.46;47.18;95353.22;5069550;28;20769;-46
2023/10/04 09:25:35;;;;;;;20.58;12.57;;;;;;;23.48;47.14;95363.47;5069877;28;20681;-46
2023/10/04 09:28:04;;;;;;;16.98;11.95;;;;;;;23.42;48.14;95362.47;5069307;28;20189;-46
2023/10/04 09:30:33;;;;;;;17.67;12.48;;;;;;;23.43;48.12;95358.03;5070052;28;20190;-46
2023/10/04 09:33:05;;;;;;;18.55;11.70;;;;;;;23.47;47.97;95360.06;5069584;28;20190;-46
2023/10/04 09:35:42;;;;;;;22.73;12.07;;;;;;;23.45;47.74;95364.69;5069433;28;20634;-45
2023/10/04 09:38:16;;;;;;;24.10;12.75;;;;;;;23.41;48.08;95347.81;5069033;28;20261;-45
2023/10/04 09:40:51;;;;;;;20.10;12.95;;;;;;;23.40;47.92;95345.38;5068990;28;20185;-45
2023/10/04 09:43:18;;;;;;;22.02;12.50;;;;;;;23.47;47.65;95349.59;5069686;28;20182;-45
2023/10/04 09:45:56;;;;;;;21.75;12.02;;;;;;;23.48;47.80;95348.59;5069468;28;20214;-46
2023/10/04 09:48:25;;;;;;;18.33;11.85;;;;;;;23.43;48.14;95350.22;5069152;28;20194;-45
2023/10/04 09:51:00;;;;;;;20.13;12.10;;;;;;;23.43;48.05;95345.78;5069006;28;20245;-44
2023/10/04 09:53:28;;;;;;;20.55;11.30;;;;;;;23.49;47.83;95344.19;5068875;28;20858;-44
2023/10/04 09:55:59;;;;;;;20.17;11.85;;;;;;;23.54;47.52;95342.59;5069431;28;20186;-46
2023/10/04 09:58:30;;;;;;;21.38;12.88;;;;;;;23.58;47.22;95352.63;5069230;28;20260;-45
2023/10/04 10:01:06;;;;;;;19.50;10.90;;;;;;;23.59;47.50;95349.00;5069062;28;20252;-49
2023/10/04 10:03:44;;;;;;;21.25;11.52;;;;;;;23.62;47.54;95343.34;5069019;28;20569;-46
2023/10/04 10:06:16;;;;;;;22.17;11.27;;;;;;;23.67;47.59;95338.38;5069847;28;20193;-45
2023/10/04 10:08:48;;;;;;;20.33;11.43;;;;;;;23.67;46.70;95338.38;5071429;28;20190;-45
2023/10/04 10:11:16;;;;;;;20.35;12.25;;;;;;;23.67;47.10;95333.16;5070576;28;20219;-46
2023/10/04 10:13:45;;;;;;;19.38;10.68;;;;;;;23.73;47.02;95333.13;5073159;28;20193;-44
2023/10/04 10:16:12;;;;;;;18.52;11.48;;;;;;;23.71;47.18;95321.31;5072994;28;20645;-45
2023/10/04 10:18:41;;;;;;;23.90;10.55;;;;;;;23.86;46.95;95327.09;5072626;28;20716;-45
2023/10/04 10:21:08;;;;;;;20.70;10.60;;;;;;;23.92;46.53;95321.06;5073011;28;20194;-45
2023/10/04 10:23:55;;;;;;;21.85;11.25;;;;;;;23.90;46.15;95314.44;5073033;28;20190;-46
2023/10/04 10:26:22;;;;;;;23.08;11.13;;;;;;;23.87;46.60;95302.56;5072881;28;20186;-45
2023/10/04 10:28:59;;;;;;;20.17;10.52;;;;;;;23.98;46.03;95306.38;5072720;28;20244;-44
2023/10/04 10:31:27;;;;;;;18.90;9.90;;;;;;;24.13;46.28;95295.66;5072620;28;20646;-45
2023/10/04 10:33:56;;;;;;;21.67;10.25;;;;;;;24.22;45.53;95303.06;5072528;28;20199;-46
2023/10/04 10:36:25;;;;;;;18.00;8.80;;;;;;;24.34;45.70;95281.50;5072846;28;20190;-44
2023/10/04 10:38:53;;;;;;;19.48;9.40;;;;;;;24.39;45.07;95287.72;5072362;28;20251;-47
2023/10/04 10:42:03;;;;;;;15.45;9.05;;;;;;;24.41;44.35;95287.53;5072101;28;20232;-44
2023/10/04 10:44:37;;;;;;;16.25;8.70;;;;;;;24.39;44.48;95276.47;5072817;28;20209;-46
2023/10/04 10:47:07;;;;;;;17.77;8.35;;;;;;;24.44;44.36;95276.66;5072370;28;20209;-45
2023/10/04 10:49:49;;;;;;;13.65;8.75;;;;;;;24.52;44.78;95279.81;5072725;28;20186;-45
2023/10/04 10:52:26;;;;;;;19.13;9.00;;;;;;;24.62;44.09;95271.50;5072483;28;20340;-46
2023/10/04 10:54:55;;;;;;;21.73;10.30;;;;;;;24.65;43.88;95275.50;5071841;28;20349;-44
2023/10/04 10:57:23;;;;;;;15.50;8.43;;;;;;;24.68;43.03;95273.28;5072206;28;20605;-45
2023/10/04 10:59:51;;;;;;;14.77;7.18;;;;;;;24.62;42.82;95274.13;5071984;28;20578;-46
2023/10/04 11:02:18;;;;;;;16.90;8.82;;;;;;;24.66;43.04;95266.66;5072230;28;20271;-46
2023/10/04 11:04:46;;;;;;;15.65;7.90;;;;;;;24.75;42.14;95274.03;5071934;28;20251;-45
2023/10/04 11:07:13;;;;;;;13.38;7.30;;;;;;;24.76;41.52;95262.56;5072318;28;20199;-45
2023/10/04 11:09:41;;;;;;;18.67;7.97;;;;;;;24.85;41.61;95270.94;5072383;28;20222;-46
2023/10/04 11:12:08;;;;;;;12.93;7.32;;;;;;;24.88;40.85;95267.91;5071780;28;20628;-47
2023/10/04 11:14:36;;;;;;;12.95;7.93;;;;;;;24.85;41.06;95257.88;5072077;28;20270;-44
2023/10/04 11:17:03;;;;;;;14.32;8.10;;;;;;;24.96;40.64;95266.88;5071912;28;20213;-44
2023/10/04 11:19:32;;;;;;;14.90;8.35;;;;;;;24.99;40.98;95253.34;5072235;28;20214;-45
2023/10/04 11:22:01;;;;;;;15.65;8.23;;;;;;;25.03;41.06;95255.31;5071393;28;20502;-46
2023/10/04 11:24:28;;;;;;;12.15;7.72;;;;;;;25.11;41.13;95253.47;5071233;28;20244;-45
2023/10/04 11:26:56;;;;;;;12.30;7.22;;;;;;;25.16;40.74;95248.38;5071707;28;20241;-46
2023/10/04 11:29:25;;;;;;;17.98;8.48;;;;;;;25.19;40.35;95245.34;5072044;28;20214;-44